Time;durP1;ratioP1;P1;durP2;ratioP2;P2;SDS_P1;SDS_P2;PMS_P1;PMS_P2;Temp;Humidity;BMP_temperature;BMP_pressure;BME280_temperature;BME280_humidity;BME280_pressure;Samples;Min_cycle;Max_cycle;Signal;HPM_P1;HPM_P2
2021/08/02 00:02:16;;;;;;;6.68;4.15;;;15.80;99.90;;;;;;5033452;28;20038;-80
2021/08/02 00:04:50;;;;;;;7.75;5.05;;;15.80;99.90;;;;;;5031911;28;20021;-79
2021/08/02 00:07:18;;;;;;;6.25;3.85;;;15.80;99.90;;;;;;5032104;28;20029;-80
2021/08/02 00:09:48;;;;;;;6.22;3.72;;;15.80;99.90;;;;;;5033178;28;20083;-79
2021/08/02 00:12:26;;;;;;;7.63;4.37;;;15.80;99.90;;;;;;5032107;28;20075;-79
2021/08/02 00:14:55;;;;;;;7.28;3.97;;;15.70;99.90;;;;;;5016091;28;20025;-79
2021/08/02 00:17:21;;;;;;;8.60;3.90;;;15.70;99.90;;;;;;5033188;28;20029;-80
2021/08/02 00:19:48;;;;;;;6.93;4.22;;;15.60;99.90;;;;;;5033045;28;20029;-79
2021/08/02 00:22:14;;;;;;;6.32;3.83;;;15.60;99.90;;;;;;5015315;28;20033;-80
2021/08/02 00:24:40;;;;;;;5.20;3.97;;;15.50;99.90;;;;;;5031587;28;20172;-79
2021/08/02 00:27:07;;;;;;;7.15;3.92;;;15.40;99.90;;;;;;5031485;28;20493;-78
2021/08/02 00:29:34;;;;;;;6.22;3.90;;;15.50;99.90;;;;;;5032944;28;20041;-78
2021/08/02 00:32:01;;;;;;;5.47;3.70;;;15.50;99.90;;;;;;5031466;28;20029;-78
2021/08/02 00:34:27;;;;;;;6.32;3.72;;;15.60;99.90;;;;;;5032654;28;20474;-78
2021/08/02 00:36:59;;;;;;;15.48;4.75;;;15.50;99.90;;;;;;5031226;28;20498;-77
2021/08/02 00:39:39;;;;;;;6.22;3.72;;;15.40;99.90;;;;;;5031603;28;20043;-79
2021/08/02 00:42:32;;;;;;;8.82;4.30;;;15.40;99.90;;;;;;5031410;28;20033;-79
2021/08/02 00:45:04;;;;;;;7.88;3.80;;;15.40;99.90;;;;;;5031814;28;20045;-78
2021/08/02 00:47:45;;;;;;;5.80;3.60;;;15.30;99.90;;;;;;5032477;28;20060;-78
2021/08/02 00:50:22;;;;;;;7.95;4.30;;;15.30;99.90;;;;;;5032554;28;20064;-78
2021/08/02 00:53:05;;;;;;;5.78;3.90;;;15.40;99.90;;;;;;5032309;28;20021;-78
2021/08/02 00:55:42;;;;;;;5.55;3.47;;;15.50;99.90;;;;;;5014951;28;20064;-78
2021/08/02 00:58:12;;;;;;;6.40;3.88;;;15.40;99.90;;;;;;5032463;28;20037;-78
2021/08/02 01:00:40;;;;;;;7.82;4.28;;;15.40;99.90;;;;;;5032909;28;20124;-78
2021/08/02 01:03:09;;;;;;;7.97;4.32;;;15.30;99.90;;;;;;5031312;28;20453;-78
2021/08/02 01:05:38;;;;;;;7.65;4.47;;;15.20;99.90;;;;;;5032108;28;20041;-78
2021/08/02 01:08:11;;;;;;;9.02;3.75;;;15.20;99.90;;;;;;5030908;28;20109;-79
2021/08/02 01:10:44;;;;;;;6.57;4.50;;;15.30;99.90;;;;;;5032080;28;20478;-79
2021/08/02 01:13:13;;;;;;;6.57;4.38;;;15.30;99.90;;;;;;5014644;28;20065;-79
2021/08/02 01:15:46;;;;;;;7.53;4.18;;;15.40;99.90;;;;;;5030758;28;20029;-79
2021/08/02 01:18:13;;;;;;;9.40;4.70;;;15.40;99.90;;;;;;5032047;28;20029;-79
2021/08/02 01:20:53;;;;;;;5.35;3.90;;;15.30;99.90;;;;;;5032307;28;20034;-80
2021/08/02 01:23:21;;;;;;;6.83;3.73;;;15.30;99.90;;;;;;5014633;28;20624;-80
2021/08/02 01:25:55;;;;;;;8.50;3.92;;;15.50;99.90;;;;;;5032107;28;20048;-80
2021/08/02 01:28:20;;;;;;;6.82;3.67;;;15.40;99.90;;;;;;5032094;28;20041;-80
2021/08/02 01:30:48;;;;;;;5.65;3.40;;;15.50;99.90;;;;;;5031924;28;20441;-77
2021/08/02 01:33:17;;;;;;;8.57;4.50;;;15.40;99.90;;;;;;5032036;28;20045;-78
2021/08/02 01:35:44;;;;;;;7.10;4.22;;;15.40;99.90;;;;;;5032199;28;20056;-78
2021/08/02 01:38:14;;;;;;;5.32;3.33;;;15.20;99.90;;;;;;5030690;28;20032;-78
2021/08/02 01:40:40;;;;;;;15.48;5.32;;;15.00;99.90;;;;;;5031723;28;20040;-78
2021/08/02 01:43:08;;;;;;;8.85;4.15;;;14.80;99.90;;;;;;5031941;28;20025;-78
2021/08/02 01:45:51;;;;;;;6.20;3.88;;;14.80;99.90;;;;;;5030268;28;20052;-78
2021/08/02 01:48:37;;;;;;;8.70;4.35;;;14.80;99.90;;;;;;5031151;28;20109;-79
2021/08/02 01:51:17;;;;;;;10.15;4.10;;;14.80;99.90;;;;;;5030688;28;20060;-78
2021/08/02 01:54:20;;;;;;;7.45;3.95;;;14.90;99.90;;;;;;5030979;28;20491;-78
2021/08/02 01:57:33;;;;;;;9.35;4.00;;;15.00;99.90;;;;;;5034917;28;20124;-78
2021/08/02 02:00:10;;;;;;;4.47;3.35;;;14.90;99.90;;;;;;5033238;28;20593;-79
2021/08/02 02:02:39;;;;;;;6.20;3.88;;;14.90;99.90;;;;;;5033304;28;20036;-79
2021/08/02 02:05:18;;;;;;;13.20;5.97;;;14.90;99.90;;;;;;5026293;28;20050;-79
2021/08/02 02:07:59;;;;;;;8.73;4.40;;;15.00;99.90;;;;;;5034388;28;20037;-79
2021/08/02 02:10:28;;;;;;;7.38;4.18;;;15.00;99.90;;;;;;5034189;28;20044;-79
2021/08/02 02:12:55;;;;;;;6.00;3.78;;;15.00;99.90;;;;;;5034174;28;20493;-78
2021/08/02 02:15:21;;;;;;;6.35;4.20;;;15.00;99.90;;;;;;5033889;28;20033;-79
2021/08/02 02:17:48;;;;;;;6.63;4.15;;;15.00;99.90;;;;;;5034051;28;20025;-79
2021/08/02 02:20:14;;;;;;;6.82;4.55;;;15.00;99.90;;;;;;5034020;28;20392;-79
2021/08/02 02:22:42;;;;;;;7.80;4.55;;;15.00;99.90;;;;;;5034322;28;20533;-79
2021/08/02 02:25:12;;;;;;;8.98;4.90;;;15.00;99.90;;;;;;5035271;28;20046;-79
2021/08/02 02:27:38;;;;;;;8.77;4.28;;;15.00;99.90;;;;;;5033848;28;20032;-79
2021/08/02 02:30:06;;;;;;;9.63;4.28;;;14.90;99.90;;;;;;5034021;28;20116;-78
2021/08/02 02:32:36;;;;;;;6.38;4.25;;;15.00;99.90;;;;;;5033712;28;20480;-79
2021/08/02 02:35:04;;;;;;;6.03;3.92;;;14.90;99.90;;;;;;5034028;28;20037;-79
2021/08/02 02:37:30;;;;;;;6.88;4.13;;;14.90;99.90;;;;;;5033666;28;20033;-78
2021/08/02 02:39:56;;;;;;;10.60;5.05;;;14.90;99.90;;;;;;5033945;28;20101;-79
2021/08/02 02:42:24;;;;;;;6.78;4.28;;;14.80;99.90;;;;;;5034611;28;20034;-79
2021/08/02 02:44:51;;;;;;;9.18;4.25;;;14.80;99.90;;;;;;5017348;28;20053;-78
2021/08/02 02:47:18;;;;;;;8.95;4.15;;;14.80;99.90;;;;;;5033609;28;20119;-79
2021/08/02 02:49:45;;;;;;;6.68;4.00;;;14.90;99.90;;;;;;5033718;28;20124;-78
2021/08/02 02:52:11;;;;;;;7.05;3.80;;;15.00;99.90;;;;;;5033635;28;20041;-78
2021/08/02 02:54:38;;;;;;;6.72;4.00;;;15.10;99.90;;;;;;5033194;28;20129;-78
2021/08/02 02:57:05;;;;;;;6.85;3.60;;;15.00;99.90;;;;;;5033173;28;20036;-78
2021/08/02 02:59:31;;;;;;;9.25;4.00;;;14.90;99.90;;;;;;5034533;28;20067;-79
2021/08/02 03:01:59;;;;;;;6.80;3.78;;;15.00;99.90;;;;;;5034607;28;20033;-78
2021/08/02 03:04:31;;;;;;;7.22;3.58;;;14.90;99.90;;;;;;5033371;28;20048;-78
2021/08/02 03:07:00;;;;;;;10.00;4.03;;;14.90;99.90;;;;;;5032682;28;20116;-78
2021/08/02 03:09:35;;;;;;;5.95;4.00;;;14.90;99.90;;;;;;5033447;28;20475;-78
2021/08/02 03:12:01;;;;;;;6.75;3.90;;;14.90;99.90;;;;;;5017035;28;20083;-79
2021/08/02 03:14:27;;;;;;;8.68;4.45;;;14.90;99.90;;;;;;5032943;28;20037;-79
2021/08/02 03:16:53;;;;;;;13.63;5.13;;;14.90;99.90;;;;;;5033137;28;20029;-79
2021/08/02 03:19:19;;;;;;;9.10;5.70;;;14.80;99.90;;;;;;5032828;28;20055;-79
2021/08/02 03:21:44;;;;;;;8.70;5.32;;;14.80;99.90;;;;;;5016404;28;20530;-78
2021/08/02 03:24:41;;;;;;;8.93;5.18;;;14.80;99.90;;;;;;5032664;28;20147;-78
2021/08/02 03:27:24;;;;;;;10.07;4.55;;;14.80;99.90;;;;;;5032996;28;20051;-79
2021/08/02 03:29:51;;;;;;;11.45;5.03;;;14.80;99.90;;;;;;5016287;28;20034;-78
2021/08/02 03:32:20;;;;;;;10.40;4.38;;;14.80;99.90;;;;;;5032949;28;20037;-78
2021/08/02 03:34:55;;;;;;;9.80;4.60;;;14.90;99.90;;;;;;5032894;28;20091;-78
2021/08/02 03:37:24;;;;;;;7.05;4.10;;;15.00;99.90;;;;;;5032555;28;20048;-78
2021/08/02 03:39:54;;;;;;;6.70;4.35;;;14.90;99.90;;;;;;5032635;28;20034;-78
2021/08/02 03:42:22;;;;;;;7.93;3.80;;;14.90;99.90;;;;;;5032564;28;20026;-78
2021/08/02 03:44:50;;;;;;;5.43;3.25;;;14.90;99.90;;;;;;5032405;28;20490;-78
2021/08/02 03:47:18;;;;;;;9.23;3.97;;;14.90;99.90;;;;;;5029697;28;20037;-64
2021/08/02 03:49:44;;;;;;;9.68;4.57;;;14.90;99.90;;;;;;5031741;28;20419;-64
2021/08/02 03:52:10;;;;;;;7.05;3.92;;;15.00;99.90;;;;;;5032233;28;20029;-64
2021/08/02 03:54:36;;;;;;;6.70;4.32;;;15.00;99.90;;;;;;5033267;28;20390;-64
2021/08/02 03:57:03;;;;;;;9.63;4.40;;;15.00;99.90;;;;;;5031885;28;20034;-64
2021/08/02 03:59:29;;;;;;;7.28;4.30;;;14.90;99.90;;;;;;5032485;28;20040;-63
2021/08/02 04:01:55;;;;;;;10.57;4.10;;;15.00;99.90;;;;;;5032075;28;20045;-64
2021/08/02 04:04:21;;;;;;;7.38;4.35;;;14.90;99.90;;;;;;5032095;28;20044;-65
2021/08/02 04:06:47;;;;;;;7.65;4.13;;;15.00;99.90;;;;;;5033299;28;20490;-64
2021/08/02 04:09:13;;;;;;;6.80;4.30;;;15.00;99.90;;;;;;5033131;28;20029;-64
2021/08/02 04:11:42;;;;;;;5.55;4.10;;;15.00;99.90;;;;;;5033150;28;20116;-65
2021/08/02 04:14:08;;;;;;;9.50;4.15;;;15.00;99.90;;;;;;5033089;28;20030;-67
2021/08/02 04:16:35;;;;;;;9.52;3.92;;;15.00;99.90;;;;;;5033382;28;20033;-64
2021/08/02 04:19:01;;;;;;;9.15;5.05;;;14.90;99.90;;;;;;5031773;28;20041;-67
2021/08/02 04:21:28;;;;;;;6.40;4.28;;;15.00;99.90;;;;;;5031739;28;20032;-64
2021/08/02 04:23:56;;;;;;;7.43;3.92;;;15.00;99.90;;;;;;5033047;28;20037;-65
2021/08/02 04:26:23;;;;;;;8.65;4.43;;;15.00;99.90;;;;;;5032898;28;20049;-67
2021/08/02 04:28:56;;;;;;;7.93;4.25;;;15.10;99.90;;;;;;5015355;28;20029;-64
2021/08/02 04:31:29;;;;;;;10.23;4.32;;;15.10;99.90;;;;;;5032973;28;20029;-65
2021/08/02 04:33:57;;;;;;;8.55;4.22;;;15.10;99.90;;;;;;5032588;28;20052;-65
2021/08/02 04:36:23;;;;;;;5.38;3.63;;;15.10;99.90;;;;;;5031154;28;20116;-67
2021/08/02 04:38:50;;;;;;;5.80;3.80;;;15.10;99.90;;;;;;5032594;28;20030;-64
2021/08/02 04:41:16;;;;;;;7.15;4.30;;;15.20;99.90;;;;;;5015060;28;20116;-64
2021/08/02 04:43:42;;;;;;;5.82;3.85;;;15.10;99.90;;;;;;5032631;28;20025;-67
2021/08/02 04:46:07;;;;;;;5.28;3.80;;;15.20;99.90;;;;;;5028335;28;20128;-65
2021/08/02 04:48:34;;;;;;;9.85;3.92;;;15.20;99.90;;;;;;5044930;28;20087;-63
2021/08/02 04:50:59;;;;;;;5.78;3.55;;;15.30;99.90;;;;;;5052346;28;20040;-64
2021/08/02 04:53:25;;;;;;;6.05;3.70;;;15.30;99.90;;;;;;5052312;28;20025;-63
2021/08/02 04:55:51;;;;;;;7.95;3.30;;;15.30;99.90;;;;;;5051392;28;20168;-63
2021/08/02 04:58:16;;;;;;;8.15;3.50;;;15.40;99.90;;;;;;5051157;28;20033;-64
2021/08/02 05:00:42;;;;;;;6.28;3.95;;;15.50;99.90;;;;;;5030149;28;20048;-63
2021/08/02 05:03:09;;;;;;;5.65;3.22;;;15.60;99.90;;;;;;5023113;28;20571;-63
2021/08/02 05:05:35;;;;;;;7.45;3.33;;;15.70;99.90;;;;;;5022458;28;20029;-63
2021/08/02 05:08:00;;;;;;;7.93;3.30;;;15.60;99.90;;;;;;5020880;28;20037;-63
2021/08/02 05:10:26;;;;;;;5.50;3.20;;;15.50;99.90;;;;;;5029150;28;20036;-64
2021/08/02 05:12:53;;;;;;;6.95;3.50;;;15.50;99.90;;;;;;5032198;28;20033;-64
2021/08/02 05:15:20;;;;;;;5.07;3.58;;;15.40;99.90;;;;;;5031827;28;20433;-63
2021/08/02 05:17:46;;;;;;;7.45;3.50;;;15.50;99.90;;;;;;5032262;28;20171;-63
2021/08/02 05:20:13;;;;;;;5.63;3.45;;;15.50;99.90;;;;;;5031094;28;20386;-63
2021/08/02 05:22:39;;;;;;;6.38;3.38;;;15.60;99.90;;;;;;5031137;28;20099;-63
2021/08/02 05:25:05;;;;;;;4.70;3.28;;;15.60;99.90;;;;;;5030608;28;20034;-63
2021/08/02 05:27:31;;;;;;;4.80;3.20;;;15.70;99.90;;;;;;5032035;28;20037;-63
2021/08/02 05:29:57;;;;;;;5.55;3.00;;;15.80;99.90;;;;;;5030892;28;20037;-63
2021/08/02 05:32:22;;;;;;;5.70;2.88;;;15.80;99.90;;;;;;5021252;28;20036;-62
2021/08/02 05:34:49;;;;;;;4.32;2.42;;;15.90;99.90;;;;;;5016390;28;20113;-62
2021/08/02 05:37:15;;;;;;;4.97;2.97;;;16.00;99.90;;;;;;5016478;28;20038;-63
2021/08/02 05:39:41;;;;;;;7.10;3.10;;;16.00;99.90;;;;;;5016323;28;20400;-63
2021/08/02 05:42:08;;;;;;;5.57;2.70;;;16.10;99.90;;;;;;5016198;28;20033;-63
2021/08/02 05:44:34;;;;;;;5.85;2.95;;;16.20;99.90;;;;;;5016409;28;20038;-63
2021/08/02 05:47:00;;;;;;;5.47;3.08;;;16.30;99.90;;;;;;5015965;28;20069;-63
2021/08/02 05:49:27;;;;;;;5.05;3.42;;;16.20;99.90;;;;;;5015701;28;20065;-68
2021/08/02 05:51:56;;;;;;;4.78;3.05;;;16.20;99.90;;;;;;5016243;28;20386;-68
2021/08/02 05:54:23;;;;;;;6.50;3.60;;;16.20;99.90;;;;;;4998637;28;20037;-68
2021/08/02 05:56:49;;;;;;;4.82;3.25;;;16.10;99.90;;;;;;5016085;28;20030;-69
2021/08/02 05:59:14;;;;;;;5.38;3.08;;;16.10;99.90;;;;;;5015708;28;20033;-68
2021/08/02 06:01:40;;;;;;;4.90;3.22;;;16.20;99.90;;;;;;5015823;28;20041;-69
2021/08/02 06:04:06;;;;;;;6.35;3.17;;;16.20;99.90;;;;;;5022726;28;20033;-68
2021/08/02 06:06:32;;;;;;;4.65;3.20;;;16.30;99.90;;;;;;5035821;28;20052;-69
2021/08/02 06:08:57;;;;;;;6.88;3.72;;;16.40;99.90;;;;;;5034080;28;20034;-68
2021/08/02 06:11:23;;;;;;;7.55;3.47;;;16.40;99.90;;;;;;5035619;28;20036;-68
2021/08/02 06:13:49;;;;;;;5.75;3.10;;;16.50;99.90;;;;;;5030026;28;20025;-68
2021/08/02 06:16:21;;;;;;;5.68;3.10;;;16.70;99.90;;;;;;5016083;28;20125;-68
2021/08/02 06:18:48;;;;;;;7.32;3.17;;;16.80;99.90;;;;;;5015537;28;20026;-68
2021/08/02 06:21:14;;;;;;;4.53;3.03;;;16.80;99.90;;;;;;5015023;28;20040;-68
2021/08/02 06:23:40;;;;;;;5.18;3.20;;;16.80;99.90;;;;;;5015592;28;20118;-68
2021/08/02 06:26:05;;;;;;;8.80;3.78;;;16.60;99.90;;;;;;5015281;28;20084;-68
2021/08/02 06:28:31;;;;;;;7.40;4.60;;;16.50;99.90;;;;;;5015398;28;20037;-68
2021/08/02 06:31:00;;;;;;;7.93;3.67;;;16.50;99.90;;;;;;5028401;28;20383;-68
2021/08/02 06:33:27;;;;;;;4.95;3.17;;;16.70;99.90;;;;;;5034949;28;20132;-69
2021/08/02 06:35:53;;;;;;;5.25;2.83;;;16.80;99.90;;;;;;5035023;28;20096;-69
2021/08/02 06:38:18;;;;;;;5.40;3.10;;;16.80;99.90;;;;;;5035106;28;20038;-69
2021/08/02 06:40:44;;;;;;;7.20;2.60;;;16.90;99.90;;;;;;5034866;28;20040;-68
2021/08/02 06:43:12;;;;;;;4.53;2.55;;;17.10;99.90;;;;;;5033701;28;20087;-68
2021/08/02 06:45:39;;;;;;;6.70;2.80;;;17.30;99.90;;;;;;5034756;28;20095;-68
2021/08/02 06:48:05;;;;;;;6.15;3.03;;;17.40;99.90;;;;;;5034062;28;20037;-69
2021/08/02 06:50:31;;;;;;;5.30;3.05;;;17.40;99.90;;;;;;5033686;28;20512;-69
2021/08/02 06:52:57;;;;;;;7.40;2.80;;;17.30;99.90;;;;;;5033872;28;20044;-69
2021/08/02 06:55:22;;;;;;;6.78;2.90;;;17.30;99.90;;;;;;5033262;28;20030;-69
2021/08/02 06:57:48;;;;;;;5.82;2.90;;;17.30;99.90;;;;;;5034785;28;20033;-69
2021/08/02 07:00:15;;;;;;;4.90;3.05;;;17.30;99.90;;;;;;5034327;28;20101;-69
2021/08/02 07:02:41;;;;;;;5.80;2.33;;;17.50;99.90;;;;;;5034014;28;20036;-71
2021/08/02 07:05:08;;;;;;;5.22;2.90;;;17.60;99.90;;;;;;5032689;28;20025;-72
2021/08/02 07:07:33;;;;;;;4.22;2.47;;;17.50;99.90;;;;;;5034024;28;20107;-71
2021/08/02 07:09:59;;;;;;;7.22;2.55;;;17.60;99.90;;;;;;5033250;28;20061;-73
2021/08/02 07:12:25;;;;;;;4.03;2.40;;;17.70;99.90;;;;;;5033273;28;20041;-74
2021/08/02 07:14:51;;;;;;;5.30;3.03;;;17.60;99.90;;;;;;5034274;28;20387;-73
2021/08/02 07:17:17;;;;;;;4.03;2.47;;;17.80;99.90;;;;;;5034368;28;20025;-73
2021/08/02 07:19:43;;;;;;;4.82;2.70;;;17.90;99.90;;;;;;5033091;28;20079;-74
2021/08/02 07:22:08;;;;;;;5.45;2.03;;;17.90;99.90;;;;;;5034097;28;20095;-74
2021/08/02 07:24:34;;;;;;;5.10;2.50;;;18.10;99.90;;;;;;5033935;28;20033;-74
2021/08/02 07:27:00;;;;;;;3.55;2.30;;;18.20;99.90;;;;;;5032905;28;20028;-73
2021/08/02 07:29:25;;;;;;;4.90;1.83;;;18.30;99.90;;;;;;5033810;28;20034;-73
2021/08/02 07:31:51;;;;;;;3.33;1.63;;;18.20;99.90;;;;;;5033989;28;20029;-72
2021/08/02 07:34:17;;;;;;;3.25;1.50;;;18.30;99.90;;;;;;5033963;28;20034;-73
2021/08/02 07:36:42;;;;;;;4.22;1.45;;;18.20;99.90;;;;;;5034035;28;20387;-72
2021/08/02 07:39:08;;;;;;;4.47;1.55;;;18.30;99.90;;;;;;5034037;28;20124;-73
2021/08/02 07:41:34;;;;;;;3.53;1.50;;;18.20;99.90;;;;;;5032662;28;20029;-73
2021/08/02 07:44:00;;;;;;;3.67;1.95;;;18.20;99.90;;;;;;5033584;28;20036;-74
2021/08/02 07:46:26;;;;;;;4.50;1.65;;;18.10;99.90;;;;;;5031855;28;20050;-69
2021/08/02 07:48:52;;;;;;;3.88;2.13;;;18.10;99.90;;;;;;5032077;28;20045;-69
2021/08/02 07:51:19;;;;;;;4.15;1.55;;;18.10;99.90;;;;;;5030483;28;20566;-69
2021/08/02 07:53:45;;;;;;;3.83;1.83;;;18.00;99.90;;;;;;5033035;28;20076;-69
2021/08/02 07:56:11;;;;;;;7.38;1.50;;;18.00;99.90;;;;;;5032309;28;20029;-69
2021/08/02 07:58:37;;;;;;;3.40;1.88;;;18.00;99.90;;;;;;5033470;28;20473;-69
2021/08/02 08:01:03;;;;;;;5.43;1.83;;;18.00;99.90;;;;;;5025692;28;20040;-69
2021/08/02 08:03:29;;;;;;;3.17;1.65;;;18.00;99.90;;;;;;5039522;28;20033;-70
2021/08/02 08:05:55;;;;;;;6.03;2.17;;;18.00;99.90;;;;;;5027651;28;20033;-69
2021/08/02 08:08:21;;;;;;;2.85;1.42;;;17.90;99.90;;;;;;5013438;28;20133;-70
2021/08/02 08:10:48;;;;;;;4.38;2.60;;;18.00;99.90;;;;;;5026281;28;20052;-69
2021/08/02 08:13:14;;;;;;;5.18;3.25;;;17.90;99.90;;;;;;5032570;28;20037;-69
2021/08/02 08:15:40;;;;;;;7.38;1.92;;;18.00;99.90;;;;;;5033088;28;20029;-69
2021/08/02 08:18:05;;;;;;;6.47;2.55;;;18.20;99.90;;;;;;5031472;28;20505;-70
2021/08/02 08:20:31;;;;;;;4.20;1.92;;;18.20;99.90;;;;;;5033083;28;20042;-70
2021/08/02 08:22:57;;;;;;;3.67;1.70;;;18.20;99.90;;;;;;5032877;28;20030;-69
2021/08/02 08:25:24;;;;;;;3.72;1.77;;;18.10;99.90;;;;;;5032852;28;20126;-69
2021/08/02 08:27:50;;;;;;;4.32;1.73;;;18.20;99.90;;;;;;5031737;28;20128;-69
2021/08/02 08:30:18;;;;;;;4.05;1.80;;;18.30;99.90;;;;;;5031653;28;20029;-70
2021/08/02 08:32:44;;;;;;;5.30;1.80;;;18.50;99.90;;;;;;5032633;28;20061;-75
2021/08/02 08:35:11;;;;;;;3.28;1.65;;;18.60;99.90;;;;;;5032519;28;20072;-73
2021/08/02 08:37:38;;;;;;;6.05;1.80;;;18.50;99.90;;;;;;5032734;28;20071;-74
2021/08/02 08:40:06;;;;;;;5.40;2.10;;;18.40;99.90;;;;;;5032502;28;20117;-72
2021/08/02 08:42:32;;;;;;;3.22;1.50;;;18.50;99.90;;;;;;5014984;28;20033;-72
2021/08/02 08:44:58;;;;;;;3.97;1.50;;;18.70;99.90;;;;;;5032673;28;20437;-73
2021/08/02 08:47:25;;;;;;;6.72;1.95;;;18.70;99.90;;;;;;5032490;28;20188;-74
2021/08/02 08:49:51;;;;;;;6.30;2.42;;;18.50;99.90;;;;;;5032460;28;20545;-73
2021/08/02 08:52:17;;;;;;;6.63;1.52;;;18.80;99.90;;;;;;5032525;28;20033;-74
2021/08/02 08:54:43;;;;;;;3.22;1.60;;;18.90;99.90;;;;;;5032675;28;20099;-73
2021/08/02 08:57:11;;;;;;;4.40;1.70;;;18.90;99.90;;;;;;5014504;28;20049;-74
2021/08/02 08:59:52;;;;;;;3.47;1.50;;;19.00;99.90;;;;;;5030869;28;20041;-73
2021/08/02 09:02:26;;;;;;;3.22;1.50;;;19.00;99.90;;;;;;5032484;28;20478;-73
2021/08/02 09:04:59;;;;;;;2.95;1.60;;;19.00;99.90;;;;;;5030375;28;20041;-73
2021/08/02 09:07:37;;;;;;;3.05;1.63;;;19.00;99.90;;;;;;5031796;28;20037;-74
2021/08/02 09:10:16;;;;;;;2.67;1.92;;;19.40;99.90;;;;;;5030772;28;20033;-74
2021/08/02 09:12:49;;;;;;;3.83;1.50;;;19.50;99.90;;;;;;5032261;28;20026;-74
2021/08/02 09:15:15;;;;;;;4.32;1.92;;;19.50;99.90;;;;;;5032145;28;20072;-75
2021/08/02 09:17:40;;;;;;;3.45;2.00;;;19.50;99.90;;;;;;5031653;28;20057;-74
2021/08/02 09:20:27;;;;;;;6.28;1.83;;;19.60;99.90;;;;;;5031013;28;20100;-73
2021/08/02 09:23:04;;;;;;;3.00;1.80;;;19.60;99.90;;;;;;5031934;28;20034;-75
2021/08/02 09:25:29;;;;;;;7.05;4.00;;;19.70;99.90;;;;;;5030697;28;20124;-76
2021/08/02 09:27:55;;;;;;;3.78;1.90;;;19.70;99.90;;;;;;5031873;28;20120;-74
2021/08/02 09:30:24;;;;;;;4.90;1.80;;;19.70;99.90;;;;;;5032095;28;20053;-74
2021/08/02 09:33:07;;;;;;;4.25;2.03;;;19.80;99.90;;;;;;5032070;28;20574;-73
2021/08/02 09:35:42;;;;;;;5.07;1.85;;;19.90;99.90;;;;;;5030186;28;20069;-75
2021/08/02 09:38:11;;;;;;;3.45;1.65;;;20.00;99.90;;;;;;5030779;28;20032;-74
2021/08/02 09:40:49;;;;;;;3.78;2.00;;;20.10;99.90;;;;;;5031959;28;20133;-73
2021/08/02 09:43:20;;;;;;;4.22;1.70;;;20.20;99.90;;;;;;5032026;28;20057;-74
2021/08/02 09:45:58;;;;;;;5.63;1.80;;;20.20;99.90;;;;;;5030836;28;20567;-73
2021/08/02 09:48:44;;;;;;;6.85;3.60;;;20.40;99.90;;;;;;5030871;28;20030;-65
2021/08/02 09:51:21;;;;;;;3.67;1.60;;;20.60;99.90;;;;;;5031702;28;20052;-63
2021/08/02 09:53:50;;;;;;;6.47;1.52;;;20.60;99.90;;;;;;5029871;28;20120;-64
2021/08/02 09:56:22;;;;;;;4.10;1.52;;;20.50;99.90;;;;;;5034920;28;20129;-66
2021/08/02 09:58:49;;;;;;;3.90;1.30;;;20.70;99.90;;;;;;5051478;28;20100;-66
2021/08/02 10:01:20;;;;;;;2.58;1.40;;;20.70;99.90;;;;;;5051602;28;20087;-68
2021/08/02 10:03:47;;;;;;;3.72;1.38;;;20.60;99.90;;;;;;5051103;28;20051;-66
2021/08/02 10:06:14;;;;;;;3.50;1.85;;;20.50;99.90;;;;;;5051699;28;20410;-65
2021/08/02 10:08:42;;;;;;;3.22;1.05;;;20.60;99.90;;;;;;5051415;28;20488;-64
2021/08/02 10:11:08;;;;;;;2.88;1.33;;;20.60;99.90;;;;;;5051845;28;20029;-64
2021/08/02 10:13:43;;;;;;;2.42;1.20;;;20.70;99.90;;;;;;5051415;28;20101;-64
2021/08/02 10:16:14;;;;;;;2.40;1.40;;;20.70;99.90;;;;;;5051899;28;20033;-64
2021/08/02 10:18:40;;;;;;;;;;;20.90;99.90;;;;;;5055679;28;20033;-65
2021/08/02 10:21:11;;;;;;;3.80;1.10;;;20.70;99.90;;;;;;5055248;28;19912;-68
2021/08/02 10:23:38;;;;;;;;;;;20.60;99.90;;;;;;5055615;28;20537;-72
2021/08/02 10:26:26;;;;;;;2.85;1.25;;;20.60;99.90;;;;;;5053735;28;19955;-72
2021/08/02 10:29:02;;;;;;;3.95;1.38;;;20.70;99.90;;;;;;5053744;28;20389;-72
2021/08/02 10:31:40;;;;;;;2.45;1.40;;;21.00;99.90;;;;;;5030746;28;20034;-72
2021/08/02 10:34:20;;;;;;;4.03;1.50;;;21.10;99.90;;;;;;5015802;28;20368;-72
2021/08/02 10:37:05;;;;;;;2.40;1.10;;;21.30;99.90;;;;;;5018768;28;20041;-71
2021/08/02 10:39:35;;;;;;;4.68;1.33;;;21.60;99.90;;;;;;5013851;28;20125;-72
2021/08/02 10:42:13;;;;;;;6.93;1.27;;;21.70;99.90;;;;;;5015187;28;20179;-72
2021/08/02 10:44:39;;;;;;;2.95;1.20;;;21.70;99.90;;;;;;5014910;28;20046;-72
2021/08/02 10:47:11;;;;;;;1.85;1.10;;;21.60;99.90;;;;;;5013656;28;20137;-72
2021/08/02 10:49:52;;;;;;;4.15;1.83;;;21.70;99.90;;;;;;5014727;28;20097;-71
2021/08/02 10:52:38;;;;;;;2.72;1.27;;;21.50;99.90;;;;;;5013963;28;20034;-71
2021/08/02 10:55:15;;;;;;;2.55;1.25;;;21.30;99.90;;;;;;5014535;28;20038;-72
2021/08/02 10:57:41;;;;;;;5.07;1.35;;;21.10;99.90;;;;;;5013327;28;20398;-72
2021/08/02 11:00:21;;;;;;;3.78;1.33;;;21.00;99.90;;;;;;5014682;28;20033;-72
2021/08/02 11:02:58;;;;;;;3.35;1.10;;;21.20;99.90;;;;;;5013332;28;20037;-72
2021/08/02 11:05:31;;;;;;;3.45;1.50;;;21.10;99.90;;;;;;5013239;28;20026;-72
2021/08/02 11:08:05;;;;;;;3.30;1.40;;;21.10;99.90;;;;;;5013815;28;20647;-73
2021/08/02 11:10:33;;;;;;;4.07;1.20;;;21.00;99.90;;;;;;5012520;28;20081;-72
2021/08/02 11:12:59;;;;;;;2.80;1.23;;;20.80;99.90;;;;;;5014176;28;20434;-72
2021/08/02 11:15:25;;;;;;;2.38;1.40;;;20.70;99.90;;;;;;5014015;28;20114;-72
2021/08/02 11:17:54;;;;;;;3.80;1.48;;;20.80;99.90;;;;;;5029030;28;20497;-72
2021/08/02 11:20:20;;;;;;;4.88;1.60;;;21.00;99.90;;;;;;5014020;28;20030;-72
2021/08/02 11:22:50;;;;;;;3.85;1.58;;;21.40;99.90;;;;;;5014425;28;20034;-72
2021/08/02 11:25:32;;;;;;;2.30;1.40;;;21.90;99.90;;;;;;5014107;28;20436;-73
2021/08/02 11:28:00;;;;;;;4.68;1.60;;;22.30;99.90;;;;;;5013936;28;20108;-73
2021/08/02 11:30:28;;;;;;;11.77;2.50;;;22.50;99.90;;;;;;5012875;28;20398;-73
2021/08/02 11:32:54;;;;;;;4.00;1.30;;;22.40;99.90;;;;;;5024362;28;20535;-73
2021/08/02 11:35:29;;;;;;;7.13;1.40;;;22.60;99.90;;;;;;5032299;28;20531;-71
2021/08/02 11:37:55;;;;;;;3.55;1.42;;;22.50;99.90;;;;;;5033000;28;20425;-73
2021/08/02 11:40:21;;;;;;;2.08;1.30;;;22.60;99.90;;;;;;5033717;28;20025;-72
2021/08/02 11:42:51;;;;;;;4.20;1.38;;;22.50;99.90;;;;;;5033943;28;20025;-73
2021/08/02 11:45:19;;;;;;;2.05;1.15;;;22.40;99.90;;;;;;5033644;28;20065;-73
2021/08/02 11:47:46;;;;;;;4.10;1.92;;;22.40;99.90;;;;;;5032257;28;20575;-73
2021/08/02 11:50:14;;;;;;;2.65;1.35;;;22.50;99.90;;;;;;5032161;28;20033;-73
2021/08/02 11:52:42;;;;;;;5.00;1.35;;;22.70;99.90;;;;;;5033164;28;20057;-73
2021/08/02 11:55:14;;;;;;;3.42;1.20;;;22.80;99.90;;;;;;5032144;28;20150;-73
2021/08/02 11:57:41;;;;;;;3.65;1.15;;;22.90;99.90;;;;;;5033373;28;20398;-73
2021/08/02 12:00:14;;;;;;;3.00;1.20;;;23.00;99.90;;;;;;5032330;28;20382;-72
2021/08/02 12:02:43;;;;;;;2.90;1.30;;;23.00;99.90;;;;;;5032014;28;20504;-72
2021/08/02 12:05:26;;;;;;;2.75;1.00;;;23.20;99.90;;;;;;5031866;28;20139;-72
2021/08/02 12:07:53;;;;;;;2.20;1.20;;;23.30;99.90;;;;;;5034753;28;20033;-73
2021/08/02 12:10:26;;;;;;;2.70;1.02;;;23.30;99.90;;;;;;5031928;28;20112;-72
2021/08/02 12:13:13;;;;;;;5.90;2.53;;;23.00;99.90;;;;;;5032829;28;20041;-72
2021/08/02 12:15:53;;;;;;;3.78;1.10;;;22.70;99.90;;;;;;5031379;28;20068;-72
2021/08/02 12:18:29;;;;;;;3.30;1.13;;;22.30;99.90;;;;;;5027265;28;20034;-73
2021/08/02 12:21:11;;;;;;;2.40;1.27;;;22.20;99.90;;;;;;5031712;28;20061;-73
2021/08/02 12:23:37;;;;;;;1.95;1.15;;;22.00;99.90;;;;;;5017155;28;20109;-74
2021/08/02 12:26:15;;;;;;;2.67;1.20;;;21.80;99.90;;;;;;5032979;28;20120;-73
2021/08/02 12:28:42;;;;;;;1.88;1.15;;;21.50;99.90;;;;;;5032853;28;20034;-72
2021/08/02 12:31:14;;;;;;;2.03;0.98;;;21.30;99.90;;;;;;5031826;28;20037;-73
2021/08/02 12:33:40;;;;;;;5.03;1.40;;;21.30;99.90;;;;;;5028875;28;20026;-73
2021/08/02 12:36:06;;;;;;;3.33;0.95;;;21.30;99.90;;;;;;5015162;28;20025;-71
2021/08/02 12:38:32;;;;;;;1.75;0.77;;;21.50;99.90;;;;;;5032472;28;20155;-72
2021/08/02 12:41:05;;;;;;;1.80;0.80;;;21.30;99.90;;;;;;5031569;28;20048;-73
2021/08/02 12:43:31;;;;;;;1.90;0.80;;;21.50;99.90;;;;;;5031593;28;20112;-72
2021/08/02 12:45:56;;;;;;;4.28;1.33;;;21.40;99.90;;;;;;5032238;28;20081;-73
2021/08/02 12:48:22;;;;;;;10.85;2.30;;;21.20;99.90;;;;;;5031224;28;20080;-73
2021/08/02 12:50:48;;;;;;;8.57;2.28;;;20.60;99.90;;;;;;5032281;28;20517;-71
2021/08/02 12:53:14;;;;;;;6.90;1.10;;;19.20;99.90;;;;;;5032728;28;20120;-71
2021/08/02 12:55:39;;;;;;;5.45;2.42;;;17.70;99.90;;;;;;5032161;28;20442;-70
2021/08/02 12:58:05;;;;;;;3.55;1.10;;;16.90;99.90;;;;;;5047904;28;20521;-72
2021/08/02 13:00:31;;;;;;;3.08;1.50;;;16.50;99.90;;;;;;5032374;28;20431;-73